createdAt,value
2018-09-20T00:00:55.907Z,6.60
2018-09-20T00:02:48.550Z,6.50
2018-09-20T00:03:48.238Z,6.80
2018-09-20T00:05:43.182Z,6.70
2018-09-20T00:06:41.617Z,6.70
2018-09-20T00:08:34.850Z,6.70
2018-09-20T00:09:34.777Z,7.10
2018-09-20T00:11:27.600Z,7.10
2018-09-20T00:12:27.369Z,7.20
2018-09-20T00:14:22.124Z,6.40
2018-09-20T00:15:20.727Z,7.30
2018-09-20T00:17:14.387Z,7.10
2018-09-20T00:18:14.097Z,7.30
2018-09-20T00:20:07.506Z,7.70
2018-09-20T00:21:07.714Z,7.20
2018-09-20T00:23:00.844Z,7.20
2018-09-20T00:24:00.865Z,7.70
2018-09-20T00:25:54.279Z,7.20
2018-09-20T00:26:54.488Z,7.20
2018-09-20T00:28:47.139Z,6.80
2018-09-20T00:29:47.085Z,6.70
2018-09-20T00:31:41.735Z,6.60
2018-09-20T00:32:41.449Z,7.00
2018-09-20T00:34:35.076Z,7.00
2018-09-20T00:35:34.812Z,6.70
2018-09-20T00:37:28.126Z,6.80
2018-09-20T00:38:27.689Z,7.30
2018-09-20T00:40:21.365Z,6.90
2018-09-20T00:41:21.057Z,7.20
2018-09-20T00:43:15.753Z,7.40
2018-09-20T00:44:15.451Z,6.30
2018-09-20T00:46:09.143Z,6.80
2018-09-20T00:47:09.116Z,6.60
2018-09-20T00:49:02.559Z,6.80
2018-09-20T00:50:01.716Z,6.60
2018-09-20T00:51:56.435Z,6.50
2018-09-20T00:52:56.321Z,6.60
2018-09-20T00:54:49.999Z,6.50
2018-09-20T00:55:49.468Z,6.30
2018-09-20T00:57:43.619Z,7.00
2018-09-20T00:58:42.791Z,7.40
2018-09-20T01:00:38.977Z,7.40
2018-09-20T01:01:38.675Z,7.10
2018-09-20T01:03:32.346Z,7.00
2018-09-20T01:04:32.023Z,7.10
2018-09-20T01:06:25.728Z,7.70
2018-09-20T01:07:25.664Z,6.90
2018-09-20T01:09:19.111Z,7.20
2018-09-20T01:10:19.296Z,6.90
2018-09-20T01:12:12.179Z,7.30
2018-09-20T01:13:12.133Z,7.50
2018-09-20T01:15:05.194Z,7.60
2018-09-20T01:16:05.592Z,7.80
2018-09-20T01:17:58.608Z,7.40
2018-09-20T01:18:58.378Z,7.30
2018-09-20T01:20:52.498Z,6.90
2018-09-20T01:21:51.759Z,7.30
2018-09-20T01:23:44.881Z,7.80
2018-09-20T01:24:44.675Z,7.20
2018-09-20T01:26:38.196Z,7.90
2018-09-20T01:27:38.003Z,7.40
2018-09-20T01:29:31.487Z,7.00
2018-09-20T01:30:31.368Z,7.40
2018-09-20T01:32:24.760Z,6.90
2018-09-20T01:33:25.309Z,7.00
2018-09-20T01:35:18.489Z,7.60
2018-09-20T01:36:18.099Z,7.10
2018-09-20T01:38:12.304Z,7.90
2018-09-20T01:39:11.454Z,7.10
2018-09-20T01:41:05.102Z,7.00
2018-09-20T01:42:04.842Z,6.40
2018-09-20T01:43:58.238Z,6.90
2018-09-20T01:44:58.217Z,7.10
2018-09-20T01:46:52.456Z,6.70
2018-09-20T01:47:52.154Z,7.00
2018-09-20T01:49:46.420Z,6.60
2018-09-20T01:50:44.998Z,6.70
2018-09-20T01:52:38.618Z,7.00
2018-09-20T01:53:38.373Z,6.40
2018-09-20T01:55:32.028Z,6.90
2018-09-20T01:56:31.735Z,6.90
2018-09-20T01:58:25.480Z,6.60
2018-09-20T01:59:24.660Z,6.90
2018-09-20T02:01:18.055Z,7.20
2018-09-20T02:02:17.986Z,7.30
2018-09-20T02:04:11.155Z,6.70
2018-09-20T02:05:10.851Z,6.10
2018-09-20T02:07:04.499Z,6.90
2018-09-20T02:08:04.237Z,7.20
2018-09-20T02:09:57.618Z,6.80
2018-09-20T02:10:57.618Z,7.00
2018-09-20T02:12:51.218Z,6.90
2018-09-20T02:13:50.976Z,6.80
2018-09-20T02:15:44.093Z,6.60
2018-09-20T02:16:44.054Z,6.80
2018-09-20T02:18:37.475Z,6.60
2018-09-20T02:19:37.208Z,7.00
2018-09-20T02:21:30.664Z,7.20
2018-09-20T02:22:30.099Z,7.40
2018-09-20T02:24:24.773Z,6.70
2018-09-20T02:25:24.717Z,7.00
2018-09-20T02:27:18.067Z,7.40
2018-09-20T02:28:17.837Z,7.30
2018-09-20T02:30:11.504Z,7.50
2018-09-20T02:31:11.205Z,6.90
2018-09-20T02:33:04.396Z,7.00
2018-09-20T02:34:04.078Z,6.90
2018-09-20T02:35:58.552Z,7.00
2018-09-20T02:36:58.458Z,7.00
2018-09-20T02:38:52.119Z,7.00
2018-09-20T02:39:51.830Z,7.40
2018-09-20T02:41:45.487Z,7.10
2018-09-20T02:42:45.173Z,7.50
2018-09-20T02:44:38.789Z,7.40
2018-09-20T02:45:38.593Z,6.60
2018-09-20T02:47:31.971Z,7.10
2018-09-20T02:48:32.139Z,7.20
2018-09-20T02:50:25.522Z,7.00
2018-09-20T02:51:25.284Z,7.00
2018-09-20T02:53:18.186Z,7.10
2018-09-20T02:54:18.156Z,7.20
2018-09-20T02:56:11.283Z,7.40
2018-09-20T02:57:11.035Z,7.50
2018-09-20T02:59:04.690Z,6.90
2018-09-20T03:00:04.392Z,7.00
2018-09-20T03:01:58.144Z,7.80
2018-09-20T03:02:57.759Z,7.30
2018-09-20T03:04:51.376Z,6.70
2018-09-20T03:05:51.119Z,7.20
2018-09-20T03:07:44.284Z,7.10
2018-09-20T03:08:43.986Z,7.10
2018-09-20T03:10:37.133Z,7.10
2018-09-20T03:11:36.902Z,6.80
2018-09-20T03:13:30.305Z,7.40
2018-09-20T03:14:30.238Z,7.00
2018-09-20T03:16:24.648Z,6.90
2018-09-20T03:17:24.624Z,7.20
2018-09-20T03:19:18.083Z,7.10
2018-09-20T03:20:18.266Z,7.00
2018-09-20T03:22:10.891Z,7.30
2018-09-20T03:23:10.876Z,7.00
2018-09-20T03:25:04.568Z,7.60
2018-09-20T03:26:04.486Z,7.50
2018-09-20T03:27:57.915Z,6.90
2018-09-20T03:28:57.599Z,7.70
2018-09-20T03:30:51.283Z,7.30
2018-09-20T03:31:51.308Z,7.60
2018-09-20T03:33:44.412Z,7.60
2018-09-20T03:34:44.519Z,7.50
2018-09-20T03:36:37.289Z,7.80
2018-09-20T03:37:37.243Z,7.40
2018-09-20T03:39:30.858Z,7.50
2018-09-20T03:40:30.577Z,7.80
2018-09-20T03:42:23.660Z,7.50
2018-09-20T03:43:23.452Z,7.60
2018-09-20T03:45:16.554Z,7.80
2018-09-20T03:46:16.394Z,7.40
2018-09-20T03:48:10.006Z,7.60
2018-09-20T03:49:09.726Z,7.80
2018-09-20T03:51:04.001Z,8.40
2018-09-20T03:52:03.398Z,8.10
2018-09-20T03:53:56.651Z,7.40
2018-09-20T03:54:56.427Z,7.30
2018-09-20T03:56:50.059Z,7.80
2018-09-20T03:57:49.790Z,7.40
2018-09-20T03:59:43.495Z,7.30
2018-09-20T04:00:43.221Z,7.00
2018-09-20T04:02:36.848Z,7.90
2018-09-20T04:03:36.587Z,7.80
2018-09-20T04:05:30.238Z,7.90
2018-09-20T04:06:29.993Z,7.90
2018-09-20T04:08:24.451Z,7.70
2018-09-20T04:09:23.317Z,7.00
2018-09-20T04:11:17.528Z,7.40
2018-09-20T04:12:16.736Z,7.60
2018-09-20T04:14:10.169Z,7.40
2018-09-20T04:15:09.838Z,7.80
2018-09-20T04:17:03.247Z,7.60
2018-09-20T04:18:02.996Z,7.60
2018-09-20T04:19:55.850Z,7.60
2018-09-20T04:20:55.859Z,7.50
2018-09-20T04:22:49.708Z,7.90
2018-09-20T04:23:49.637Z,8.00
2018-09-20T04:25:42.582Z,7.80
2018-09-20T04:26:42.572Z,8.00
2018-09-20T04:28:36.929Z,7.90
2018-09-20T04:29:36.901Z,7.80
2018-09-20T04:31:29.956Z,7.30
2018-09-20T04:32:29.817Z,7.30
2018-09-20T04:34:23.037Z,8.50
2018-09-20T04:35:22.788Z,8.10
2018-09-20T04:37:15.613Z,7.90
2018-09-20T04:38:15.631Z,7.90
2018-09-20T04:40:09.235Z,7.90
2018-09-20T04:41:08.944Z,8.10
2018-09-20T04:43:02.394Z,8.20
2018-09-20T04:44:02.315Z,7.80
2018-09-20T04:45:56.086Z,7.90
2018-09-20T04:46:55.679Z,7.50
2018-09-20T04:48:49.410Z,8.10
2018-09-20T04:49:49.079Z,7.50
2018-09-20T04:51:42.697Z,7.60
2018-09-20T04:52:42.729Z,8.10
2018-09-20T04:54:35.617Z,7.70
2018-09-20T04:55:35.613Z,8.00
2018-09-20T04:57:28.971Z,7.50
2018-09-20T04:58:28.157Z,8.10
2018-09-20T05:00:22.689Z,8.50
2018-09-20T05:01:21.028Z,8.20
2018-09-20T05:03:14.591Z,8.30
2018-09-20T05:04:14.990Z,8.00
2018-09-20T05:06:08.015Z,8.20
2018-09-20T05:07:07.803Z,8.60
2018-09-20T05:09:01.517Z,8.30
2018-09-20T05:10:01.176Z,8.20
2018-09-20T05:11:54.536Z,8.20
2018-09-20T05:12:54.515Z,8.00
2018-09-20T05:14:47.930Z,8.30
2018-09-20T05:15:48.468Z,8.00
2018-09-20T05:17:42.789Z,8.30
2018-09-20T05:18:42.743Z,9.30
2018-09-20T05:20:36.057Z,8.70
2018-09-20T05:21:35.738Z,8.50
2018-09-20T05:23:29.522Z,9.10
2018-09-20T05:24:29.021Z,9.50
2018-09-20T05:26:23.817Z,8.40
2018-09-20T05:27:23.798Z,9.00
2018-09-20T05:29:16.845Z,10.40
2018-09-20T05:30:17.178Z,9.70
2018-09-20T05:32:10.520Z,9.80
2018-09-20T05:33:10.238Z,9.60
2018-09-20T05:35:03.779Z,9.90
2018-09-20T05:36:03.854Z,9.00
2018-09-20T05:37:56.752Z,8.80
2018-09-20T05:38:56.657Z,9.60
2018-09-20T05:40:50.553Z,8.90
2018-09-20T05:41:49.656Z,8.50
2018-09-20T05:43:45.655Z,9.20
2018-09-20T05:44:45.452Z,9.30
2018-09-20T05:46:42.730Z,8.70
2018-09-20T05:47:41.405Z,9.60
2018-09-20T05:49:34.817Z,9.80
2018-09-20T05:50:34.754Z,8.40
2018-09-20T05:52:28.117Z,9.20
2018-09-20T05:53:27.804Z,9.60
2018-09-20T05:55:23.978Z,9.40
2018-09-20T05:56:22.516Z,9.00
2018-09-20T05:58:15.910Z,8.80
2018-09-20T05:59:15.564Z,8.40
2018-09-20T06:01:10.312Z,8.80
2018-09-20T06:02:09.866Z,8.60
2018-09-20T06:04:03.440Z,8.20
2018-09-20T06:05:03.297Z,8.10
2018-09-20T06:06:56.132Z,7.90
2018-09-20T06:07:56.152Z,7.70
2018-09-20T06:09:49.504Z,7.80
2018-09-20T06:10:49.477Z,7.70
2018-09-20T06:12:42.946Z,7.30
2018-09-20T06:13:42.856Z,7.10
2018-09-20T06:15:36.226Z,7.00
2018-09-20T06:16:36.207Z,6.70
2018-09-20T06:18:29.645Z,7.20
2018-09-20T06:19:29.586Z,7.30
2018-09-20T06:21:24.028Z,5.80
2018-09-20T06:22:22.955Z,6.30
2018-09-20T06:24:16.662Z,6.50
2018-09-20T06:25:16.355Z,6.20
2018-09-20T06:27:09.975Z,6.00
2018-09-20T06:28:09.687Z,6.40
2018-09-20T06:30:03.715Z,6.40
2018-09-20T06:31:03.409Z,6.40
2018-09-20T06:32:56.303Z,5.80
2018-09-20T06:33:56.297Z,6.30
2018-09-20T06:35:49.214Z,6.30
2018-09-20T06:36:49.295Z,5.90
2018-09-20T06:38:42.591Z,5.70
2018-09-20T06:39:42.606Z,5.60
2018-09-20T06:41:36.541Z,5.70
2018-09-20T06:42:36.289Z,5.60
2018-09-20T06:44:29.306Z,5.90
2018-09-20T06:45:29.101Z,6.00
2018-09-20T06:47:22.460Z,5.50
2018-09-20T06:48:22.426Z,5.90
2018-09-20T06:50:16.708Z,5.30
2018-09-20T06:51:17.684Z,5.50
2018-09-20T06:53:10.243Z,5.50
2018-09-20T06:54:10.028Z,5.40
2018-09-20T06:56:03.527Z,5.70
2018-09-20T06:57:03.417Z,5.60
2018-09-20T06:58:56.840Z,5.00
2018-09-20T06:59:56.791Z,5.30
2018-09-20T07:01:49.708Z,5.20
2018-09-20T07:02:49.699Z,4.90
2018-09-20T07:04:42.565Z,5.20
2018-09-20T07:05:42.566Z,5.30
2018-09-20T07:07:36.082Z,5.10
2018-09-20T07:08:35.930Z,4.90
2018-09-20T07:10:28.907Z,4.80
2018-09-20T07:11:29.495Z,4.70
2018-09-20T07:13:22.787Z,4.60
2018-09-20T07:14:22.776Z,4.30
2018-09-20T07:16:18.465Z,5.70
2018-09-20T07:17:15.670Z,5.40
2018-09-20T07:19:09.232Z,5.20
2018-09-20T07:20:09.053Z,5.20
2018-09-20T07:22:02.463Z,4.70
2018-09-20T07:23:02.426Z,5.30
2018-09-20T07:25:46.471Z,4.80
2018-09-20T07:26:46.533Z,4.80
2018-09-20T07:28:39.904Z,5.00
2018-09-20T07:29:39.797Z,4.90
2018-09-20T07:31:32.692Z,4.20
2018-09-20T07:32:32.701Z,4.30
2018-09-20T07:34:26.083Z,5.00
2018-09-20T07:35:26.071Z,5.00
2018-09-20T07:37:19.063Z,5.50
2018-09-20T07:38:19.062Z,5.10
2018-09-20T07:40:12.055Z,4.70
2018-09-20T07:41:11.947Z,4.10
2018-09-20T07:43:06.632Z,4.90
2018-09-20T07:44:05.334Z,5.20
2018-09-20T07:45:58.745Z,4.90
2018-09-20T07:46:58.719Z,4.30
2018-09-20T07:48:51.764Z,4.70
2018-09-20T07:49:51.734Z,4.40
2018-09-20T07:51:45.128Z,5.10
2018-09-20T07:52:45.118Z,4.80
2018-09-20T07:54:38.543Z,4.40
2018-09-20T07:55:38.514Z,4.50
2018-09-20T07:57:31.523Z,4.60
2018-09-20T07:58:31.412Z,4.30
2018-09-20T08:00:24.414Z,4.00
2018-09-20T08:01:24.392Z,3.90
2018-09-20T08:03:17.698Z,4.10
2018-09-20T08:04:17.673Z,4.20
2018-09-20T08:06:11.153Z,4.40
2018-09-20T08:07:12.608Z,4.30
2018-09-20T08:09:04.078Z,4.10
2018-09-20T08:10:04.062Z,4.00
2018-09-20T08:11:57.468Z,4.10
2018-09-20T08:12:57.496Z,4.90
2018-09-20T08:15:42.549Z,4.10
2018-09-20T08:16:41.528Z,4.00
2018-09-20T08:18:34.857Z,4.50
2018-09-20T08:19:34.881Z,4.20
2018-09-20T08:21:27.771Z,4.30
2018-09-20T08:22:27.733Z,4.30
2018-09-20T08:24:21.162Z,4.30
2018-09-20T08:25:21.115Z,4.20
2018-09-20T08:27:14.025Z,4.40
2018-09-20T08:28:14.001Z,4.50
2018-09-20T08:30:06.953Z,4.10
2018-09-20T08:31:06.903Z,4.10
2018-09-20T08:33:00.360Z,4.00
2018-09-20T08:34:00.289Z,4.50
2018-09-20T08:35:53.692Z,4.30
2018-09-20T08:36:53.670Z,4.20
2018-09-20T08:38:46.570Z,4.00
2018-09-20T08:39:46.559Z,4.20
2018-09-20T08:41:43.981Z,3.90
2018-09-20T08:42:39.593Z,4.30
2018-09-20T08:44:32.890Z,4.50
2018-09-20T08:45:32.889Z,4.00
2018-09-20T08:47:26.307Z,3.80
2018-09-20T08:48:26.272Z,4.10
2018-09-20T08:50:19.958Z,3.90
2018-09-20T08:51:19.665Z,4.00
2018-09-20T08:53:12.702Z,4.50
2018-09-20T08:54:12.583Z,4.30
2018-09-20T08:56:05.980Z,4.00
2018-09-20T08:57:06.011Z,3.90
2018-09-20T08:58:58.852Z,4.40
2018-09-20T08:59:58.862Z,4.10
2018-09-20T09:01:51.765Z,4.20
2018-09-20T09:02:51.770Z,4.20
2018-09-20T09:04:45.170Z,4.30
2018-09-20T09:05:46.039Z,4.00
2018-09-20T09:07:38.544Z,3.80
2018-09-20T09:08:38.574Z,4.00
2018-09-20T09:10:31.421Z,4.20
2018-09-20T09:11:31.435Z,3.80
2018-09-20T09:13:24.810Z,4.30
2018-09-20T09:14:24.797Z,3.80
2018-09-20T09:16:17.705Z,4.80
2018-09-20T09:17:17.692Z,4.10
2018-09-20T09:19:11.366Z,3.80
2018-09-20T09:20:11.067Z,4.00
2018-09-20T09:22:04.538Z,4.30
2018-09-20T09:23:04.465Z,3.90
2018-09-20T09:24:57.356Z,4.10
2018-09-20T09:25:57.343Z,4.20
2018-09-20T09:27:50.750Z,3.90
2018-09-20T09:28:50.834Z,4.10
2018-09-20T09:30:43.767Z,3.90
2018-09-20T09:31:43.619Z,4.00
2018-09-20T09:33:37.391Z,4.10
2018-09-20T09:34:37.072Z,3.90
2018-09-20T09:36:30.416Z,4.00
2018-09-20T09:37:30.413Z,4.60
2018-09-20T09:39:23.816Z,4.70
2018-09-20T09:40:23.795Z,4.10
2018-09-20T09:42:16.738Z,4.20
2018-09-20T09:43:16.750Z,4.20
2018-09-20T09:45:09.608Z,4.10
2018-09-20T09:46:09.584Z,4.30
2018-09-20T09:48:03.081Z,4.30
2018-09-20T09:49:02.988Z,4.10
2018-09-20T09:50:56.937Z,4.70
2018-09-20T09:51:56.921Z,5.60
2018-09-20T09:53:49.842Z,4.50
2018-09-20T09:54:49.869Z,4.10
2018-09-20T09:56:43.273Z,4.70
2018-09-20T09:57:43.206Z,4.50
2018-09-20T09:59:36.180Z,4.20
2018-09-20T10:00:36.160Z,4.10
2018-09-20T10:02:29.500Z,4.60
2018-09-20T10:03:29.483Z,4.20
2018-09-20T10:05:22.472Z,4.80
2018-09-20T10:06:22.382Z,4.40
2018-09-20T10:08:15.382Z,4.60
2018-09-20T10:09:15.332Z,5.00
2018-09-20T10:11:08.729Z,3.90
2018-09-20T10:12:08.727Z,4.30
2018-09-20T10:14:01.621Z,4.70
2018-09-20T10:15:01.595Z,3.90
2018-09-20T10:16:55.086Z,3.90
2018-09-20T10:17:54.493Z,4.30
2018-09-20T10:19:47.927Z,4.50
2018-09-20T10:20:47.898Z,4.90
2018-09-20T10:22:41.314Z,4.40
2018-09-20T10:23:41.271Z,4.20
2018-09-20T10:25:34.870Z,4.20
2018-09-20T10:26:34.731Z,4.10
2018-09-20T10:28:27.632Z,5.00
2018-09-20T10:29:27.648Z,4.80
2018-09-20T10:31:20.625Z,4.30
2018-09-20T10:32:20.553Z,4.30
2018-09-20T10:34:13.520Z,4.30
2018-09-20T10:35:13.413Z,4.50
2018-09-20T10:37:06.905Z,4.40
2018-09-20T10:38:06.835Z,4.80
2018-09-20T10:39:59.731Z,4.60
2018-09-20T10:41:00.251Z,3.90
2018-09-20T10:42:53.103Z,5.10
2018-09-20T10:43:53.091Z,4.80
2018-09-20T10:45:46.133Z,4.60
2018-09-20T10:46:46.023Z,4.50
2018-09-20T10:48:39.418Z,4.70
2018-09-20T10:49:39.409Z,4.00
2018-09-20T10:51:32.809Z,4.20
2018-09-20T10:52:32.797Z,4.30
2018-09-20T10:54:25.770Z,4.00
2018-09-20T10:55:25.742Z,4.10
2018-09-20T10:57:18.681Z,4.60
2018-09-20T10:58:18.581Z,4.40
2018-09-20T11:00:11.493Z,3.90
2018-09-20T11:01:11.477Z,3.80
2018-09-20T11:03:04.434Z,4.10
2018-09-20T11:04:04.361Z,4.30
2018-09-20T11:05:57.286Z,4.10
2018-09-20T11:06:57.258Z,4.50
2018-09-20T11:08:50.680Z,4.20
2018-09-20T11:09:50.653Z,3.90
2018-09-20T11:11:44.049Z,4.70
2018-09-20T11:12:44.051Z,4.30
2018-09-20T11:14:37.187Z,4.50
2018-09-20T11:15:36.955Z,4.40
2018-09-20T11:17:29.856Z,4.20
2018-09-20T11:18:29.821Z,3.90
2018-09-20T11:20:23.228Z,4.30
2018-09-20T11:21:23.213Z,4.30
2018-09-20T11:23:16.220Z,4.30
2018-09-20T11:24:17.147Z,4.10
2018-09-20T11:26:09.617Z,3.90
2018-09-20T11:27:09.604Z,3.90
2018-09-20T11:29:03.010Z,3.90
2018-09-20T11:30:02.972Z,4.10
2018-09-20T11:31:55.991Z,3.50
2018-09-20T11:32:55.866Z,3.40
2018-09-20T11:34:49.274Z,4.00
2018-09-20T11:35:49.264Z,3.90
2018-09-20T11:37:42.655Z,3.90
2018-09-20T11:38:42.641Z,4.40
2018-09-20T11:40:35.674Z,3.90
2018-09-20T11:41:35.535Z,3.60
2018-09-20T11:43:28.447Z,3.90
2018-09-20T11:44:28.450Z,3.80
2018-09-20T11:46:21.415Z,3.90
2018-09-20T11:47:21.335Z,4.00
2018-09-20T11:49:14.760Z,3.70
2018-09-20T11:50:14.722Z,3.90
2018-09-20T11:52:08.178Z,3.60
2018-09-20T11:53:08.101Z,3.70
2018-09-20T11:55:01.518Z,3.40
2018-09-20T11:56:01.497Z,3.50
2018-09-20T11:57:54.908Z,3.60
2018-09-20T11:58:54.885Z,3.40
2018-09-20T12:00:48.319Z,5.20
2018-09-20T12:01:48.300Z,4.30
2018-09-20T12:03:41.270Z,3.70
2018-09-20T12:04:41.181Z,4.00
2018-09-20T12:06:34.554Z,3.80
2018-09-20T12:07:34.542Z,4.20
2018-09-20T12:09:27.956Z,3.80
2018-09-20T12:10:27.943Z,3.90
2018-09-20T12:12:21.431Z,4.00
2018-09-20T12:13:21.326Z,3.40
2018-09-20T12:15:14.794Z,3.80
2018-09-20T12:16:14.740Z,3.80
2018-09-20T12:18:08.227Z,3.70
2018-09-20T12:19:08.172Z,4.00
2018-09-20T12:21:01.110Z,3.70
2018-09-20T12:22:01.113Z,3.80
2018-09-20T12:23:54.468Z,3.90
2018-09-20T12:24:54.463Z,3.60
2018-09-20T12:26:47.964Z,4.00
2018-09-20T12:27:47.857Z,3.70
2018-09-20T12:29:40.766Z,4.20
2018-09-20T12:30:40.744Z,4.30
2018-09-20T12:32:33.793Z,3.90
2018-09-20T12:33:33.740Z,3.80
2018-09-20T12:35:26.829Z,3.50
2018-09-20T12:36:26.623Z,4.00
2018-09-20T12:38:20.094Z,3.40
2018-09-20T12:39:20.000Z,3.30
2018-09-20T12:41:13.484Z,3.70
2018-09-20T12:42:13.423Z,3.80
2018-09-20T12:44:06.390Z,3.70
2018-09-20T12:45:06.282Z,3.40
2018-09-20T12:46:59.740Z,3.70
2018-09-20T12:47:59.673Z,4.20
2018-09-20T12:49:53.113Z,4.20
2018-09-20T12:50:53.071Z,4.00
2018-09-20T12:52:46.617Z,3.80
2018-09-20T12:53:46.583Z,3.60
2018-09-20T12:55:40.133Z,3.50
2018-09-20T12:56:39.991Z,3.60
2018-09-20T12:58:33.435Z,3.90
2018-09-20T12:59:33.380Z,3.90
2018-09-20T13:01:26.763Z,3.50
2018-09-20T13:02:26.757Z,3.80
2018-09-20T13:04:19.660Z,3.60
2018-09-20T13:05:19.658Z,3.40
2018-09-20T13:07:13.035Z,3.50
2018-09-20T13:08:13.022Z,3.60
2018-09-20T13:10:06.433Z,3.50
2018-09-20T13:11:06.420Z,4.20
2018-09-20T13:13:00.968Z,3.50
2018-09-20T13:14:00.862Z,3.20
2018-09-20T13:15:53.390Z,3.70
2018-09-20T13:16:53.421Z,3.70
2018-09-20T13:18:46.151Z,3.70
2018-09-20T13:19:46.160Z,3.60
2018-09-20T13:21:39.252Z,3.30
2018-09-20T13:22:39.129Z,4.00
2018-09-20T13:24:32.063Z,3.60
2018-09-20T13:25:32.844Z,3.00
2018-09-20T13:27:24.949Z,3.80
2018-09-20T13:28:24.925Z,3.90
2018-09-20T13:30:18.356Z,4.10
2018-09-20T13:31:18.347Z,3.80
2018-09-20T13:33:11.262Z,3.90
2018-09-20T13:34:11.253Z,4.00
2018-09-20T13:36:04.658Z,3.50
2018-09-20T13:37:04.914Z,4.00
2018-09-20T13:38:58.081Z,3.40
2018-09-20T13:39:57.545Z,3.80
2018-09-20T13:41:50.967Z,3.90
2018-09-20T13:42:50.951Z,3.70
2018-09-20T13:44:44.900Z,3.60
2018-09-20T13:45:44.352Z,3.40
2018-09-20T13:47:37.319Z,4.20
2018-09-20T13:48:37.261Z,4.20
2018-09-20T13:50:30.644Z,4.40
2018-09-20T13:51:30.620Z,4.20
2018-09-20T13:53:23.640Z,4.10
2018-09-20T13:54:23.514Z,4.40
2018-09-20T13:56:16.549Z,4.10
2018-09-20T13:57:17.152Z,4.00
2018-09-20T13:59:09.329Z,3.60
2018-09-20T14:00:09.347Z,3.90
2018-09-20T14:02:02.344Z,3.50
2018-09-20T14:03:02.182Z,3.70
2018-09-20T14:04:55.114Z,3.50
2018-09-20T14:05:55.120Z,3.70
2018-09-20T14:07:48.535Z,3.30
2018-09-20T14:08:48.487Z,3.20
2018-09-20T14:10:41.435Z,3.50
2018-09-20T14:11:41.915Z,3.20
2018-09-20T14:13:34.318Z,3.30
2018-09-20T14:14:34.294Z,3.30
2018-09-20T14:16:27.189Z,3.20
2018-09-20T14:17:27.250Z,3.30
2018-09-20T14:19:20.575Z,3.20
2018-09-20T14:20:20.550Z,3.30
2018-09-20T14:22:13.973Z,3.40
2018-09-20T14:23:13.459Z,3.50
2018-09-20T14:25:06.895Z,3.10
2018-09-20T14:26:06.827Z,3.40
2018-09-20T14:28:00.237Z,3.40
2018-09-20T14:29:00.223Z,3.20
2018-09-20T14:30:54.218Z,3.50
2018-09-20T14:31:53.154Z,3.40
2018-09-20T14:33:46.077Z,3.10
2018-09-20T14:34:46.045Z,3.00
2018-09-20T14:36:39.502Z,3.60
2018-09-20T14:37:39.434Z,3.50
2018-09-20T14:39:32.874Z,3.00
2018-09-20T14:40:32.833Z,3.40
2018-09-20T14:42:25.732Z,3.10
2018-09-20T14:43:25.724Z,2.80
2018-09-20T14:45:19.201Z,3.40
2018-09-20T14:46:18.627Z,3.40
2018-09-20T14:48:11.527Z,3.20
2018-09-20T14:49:11.508Z,2.90
2018-09-20T14:51:04.413Z,3.10
2018-09-20T14:52:04.401Z,3.40
2018-09-20T14:53:57.504Z,3.30
2018-09-20T14:54:57.286Z,3.30
2018-09-20T14:56:50.219Z,3.30
2018-09-20T14:57:50.206Z,3.40
2018-09-20T14:59:43.165Z,2.80
2018-09-20T15:00:43.093Z,3.20
2018-09-20T15:02:36.594Z,3.10
2018-09-20T15:03:35.986Z,3.30
2018-09-20T15:05:29.391Z,3.40
2018-09-20T15:06:29.384Z,3.20
2018-09-20T15:08:22.361Z,3.40
2018-09-20T15:09:22.269Z,3.40
2018-09-20T15:11:15.776Z,3.50
2018-09-20T15:12:15.661Z,3.60
2018-09-20T15:14:08.612Z,3.20
2018-09-20T15:15:08.627Z,3.10
2018-09-20T15:17:01.603Z,3.00
2018-09-20T15:18:02.006Z,3.10
2018-09-20T15:19:54.468Z,3.00
2018-09-20T15:20:54.332Z,2.70
2018-09-20T15:22:47.726Z,3.30
2018-09-20T15:23:47.728Z,3.40
2018-09-20T15:25:41.144Z,3.20
2018-09-20T15:26:41.120Z,3.00
2018-09-20T15:28:34.635Z,2.90
2018-09-20T15:29:34.505Z,2.90
2018-09-20T15:31:27.495Z,3.20
2018-09-20T15:32:27.410Z,3.30
2018-09-20T15:34:20.899Z,2.70
2018-09-20T15:35:20.784Z,2.70
2018-09-20T15:37:13.697Z,2.90
2018-09-20T15:38:13.682Z,3.10
2018-09-20T15:40:07.651Z,3.30
2018-09-20T15:41:07.070Z,3.10
2018-09-20T15:43:01.998Z,3.30
2018-09-20T15:44:00.098Z,3.00
2018-09-20T15:45:53.853Z,3.40
2018-09-20T15:46:53.345Z,2.80
2018-09-20T15:48:48.509Z,3.60
2018-09-20T15:49:47.315Z,3.10
2018-09-20T15:51:40.809Z,3.10
2018-09-20T15:52:40.676Z,3.10
2018-09-20T15:54:34.080Z,2.80
2018-09-20T15:55:34.074Z,3.20
2018-09-20T15:58:18.604Z,2.90
2018-09-20T15:59:18.549Z,2.90
2018-09-20T16:01:12.002Z,3.30
2018-09-20T16:02:11.470Z,2.90
2018-09-20T16:04:05.014Z,2.70
2018-09-20T16:05:04.881Z,3.00
2018-09-20T16:06:58.242Z,3.00
2018-09-20T16:07:58.239Z,2.90
2018-09-20T16:09:51.189Z,3.00
2018-09-20T16:10:51.134Z,3.10
2018-09-20T16:12:44.095Z,3.10
2018-09-20T16:13:44.090Z,3.00
2018-09-20T16:15:38.490Z,3.20
2018-09-20T16:16:38.448Z,3.80
2018-09-20T16:18:31.888Z,2.90
2018-09-20T16:19:31.847Z,2.90
2018-09-20T16:21:24.743Z,2.90
2018-09-20T16:22:24.725Z,2.90
2018-09-20T16:24:18.700Z,2.60
2018-09-20T16:25:18.690Z,2.80
2018-09-20T16:27:12.145Z,3.10
2018-09-20T16:28:11.565Z,3.00
2018-09-20T16:30:04.963Z,2.80
2018-09-20T16:31:04.840Z,2.70
2018-09-20T16:32:58.239Z,2.80
2018-09-20T16:33:58.229Z,3.20
2018-09-20T16:35:51.648Z,2.90
2018-09-20T16:36:51.627Z,3.00
2018-09-20T16:38:44.724Z,2.80
2018-09-20T16:39:44.524Z,2.90
2018-09-20T16:41:37.496Z,2.80
2018-09-20T16:42:37.409Z,3.00
2018-09-20T16:44:30.814Z,3.00
2018-09-20T16:45:30.801Z,2.80
2018-09-20T16:47:24.132Z,3.20
2018-09-20T16:48:24.114Z,2.80
2018-09-20T16:50:17.528Z,3.00
2018-09-20T16:51:17.511Z,2.60
2018-09-20T16:53:10.481Z,3.20
2018-09-20T16:54:10.425Z,2.90
2018-09-20T16:56:03.306Z,3.10
2018-09-20T16:57:03.326Z,2.90
2018-09-20T16:58:56.686Z,3.60
2018-09-20T16:59:56.681Z,2.90
2018-09-20T17:01:49.580Z,3.30
2018-09-20T17:02:49.568Z,3.10
2018-09-20T17:04:42.965Z,2.80
2018-09-20T17:05:42.960Z,2.90
2018-09-20T17:07:36.950Z,3.10
2018-09-20T17:08:35.862Z,3.00
2018-09-20T17:10:28.784Z,3.30
2018-09-20T17:11:28.736Z,3.50
2018-09-20T17:13:22.767Z,3.40
2018-09-20T17:14:21.992Z,3.50
2018-09-20T17:16:15.483Z,3.30
2018-09-20T17:17:15.390Z,3.20
2018-09-20T17:19:08.243Z,3.20
2018-09-20T17:20:08.260Z,3.20
2018-09-20T17:22:01.690Z,3.10
2018-09-20T17:23:01.654Z,3.50
2018-09-20T17:24:54.996Z,4.80
2018-09-20T17:25:54.979Z,5.40
2018-09-20T17:27:48.386Z,4.60
2018-09-20T17:28:48.501Z,4.70
2018-09-20T17:30:42.335Z,3.60
2018-09-20T17:31:42.794Z,3.60
2018-09-20T17:33:38.230Z,3.20
2018-09-20T17:34:36.356Z,3.50
2018-09-20T17:36:29.436Z,3.90
2018-09-20T17:37:29.097Z,3.60
2018-09-20T17:39:22.843Z,3.90
2018-09-20T17:40:22.465Z,3.50
2018-09-20T17:42:16.451Z,4.00
2018-09-20T17:43:15.994Z,3.70
2018-09-20T17:45:09.291Z,4.00
2018-09-20T17:46:09.299Z,5.20
2018-09-20T17:48:02.136Z,3.60
2018-09-20T17:49:02.132Z,3.90
2018-09-20T17:50:55.300Z,5.00
2018-09-20T17:51:55.088Z,5.00
2018-09-20T17:53:48.631Z,5.10
2018-09-20T17:54:48.419Z,4.20
2018-09-20T17:56:42.357Z,4.00
2018-09-20T17:57:41.793Z,3.90
2018-09-20T17:59:35.210Z,4.10
2018-09-20T18:00:35.180Z,4.50
2018-09-20T18:02:28.802Z,4.20
2018-09-20T18:03:28.563Z,3.90
2018-09-20T18:05:21.551Z,4.30
2018-09-20T18:06:21.676Z,4.80
2018-09-20T18:08:14.431Z,5.90
2018-09-20T18:09:14.373Z,5.80
2018-09-20T18:11:07.853Z,5.00
2018-09-20T18:12:07.756Z,4.90
2018-09-20T18:14:01.706Z,4.50
2018-09-20T18:15:01.166Z,4.50
2018-09-20T18:16:55.446Z,4.70
2018-09-20T18:17:54.559Z,3.90
2018-09-20T18:19:48.752Z,4.30
2018-09-20T18:20:47.884Z,3.60
2018-09-20T18:22:40.807Z,3.30
2018-09-20T18:23:41.089Z,3.70
2018-09-20T18:25:34.227Z,6.10
2018-09-20T18:26:34.157Z,6.80
2018-09-20T18:28:28.867Z,6.10
2018-09-20T18:29:28.545Z,4.70
2018-09-20T18:31:21.448Z,4.70
2018-09-20T18:32:21.416Z,4.40
2018-09-20T18:34:15.215Z,4.10
2018-09-20T18:35:15.362Z,4.00
2018-09-20T18:37:07.957Z,4.00
2018-09-20T18:38:07.761Z,3.80
2018-09-20T18:40:00.604Z,4.00
2018-09-20T18:41:00.590Z,4.00
2018-09-20T18:42:54.608Z,4.20
2018-09-20T18:43:53.476Z,4.10
2018-09-20T18:45:46.942Z,4.00
2018-09-20T18:46:47.913Z,3.80
2018-09-20T18:48:40.733Z,3.80
2018-09-20T18:49:40.338Z,3.50
2018-09-20T18:51:34.114Z,4.40
2018-09-20T18:52:33.695Z,4.20
2018-09-20T18:54:26.646Z,4.30
2018-09-20T18:55:26.588Z,4.30
2018-09-20T18:57:19.817Z,4.30
2018-09-20T18:58:19.471Z,4.20
2018-09-20T19:00:12.881Z,4.10
2018-09-20T19:01:13.270Z,4.30
2018-09-20T19:03:06.597Z,4.60
2018-09-20T19:04:06.609Z,4.70
2018-09-20T19:06:00.033Z,4.20
2018-09-20T19:07:01.482Z,4.50
2018-09-20T19:08:53.459Z,4.20
2018-09-20T19:09:53.450Z,4.00
2018-09-20T19:11:46.823Z,4.80
2018-09-20T19:12:46.882Z,4.70
2018-09-20T19:14:41.673Z,4.70
2018-09-20T19:15:39.589Z,4.80